Time;durP1;ratioP1;P1;durP2;ratioP2;P2;SDS_P1;SDS_P2;PMS_P1;PMS_P2;Temp;Humidity;BMP_temperature;BMP_pressure;BME280_temperature;BME280_humidity;BME280_pressure;Samples;Min_cycle;Max_cycle;Signal;HPM_P1;HPM_P2
2023/08/26 00:00:21;;;;;;;6.85;4.43;;;24.20;99.90;;;;;;6220380;23;20028;-81
2023/08/26 00:02:49;;;;;;;6.95;3.85;;;24.10;99.90;;;;;;6248353;23;20012;-81
2023/08/26 00:05:17;;;;;;;12.20;4.70;;;24.10;99.90;;;;;;6219766;23;20380;-81
2023/08/26 00:07:45;;;;;;;7.32;4.30;;;24.10;99.90;;;;;;6246958;23;20020;-81
2023/08/26 00:10:12;;;;;;;9.25;4.60;;;24.10;99.90;;;;;;6246906;23;20012;-81
2023/08/26 00:12:40;;;;;;;7.22;3.90;;;24.10;99.90;;;;;;6247510;23;20024;-81
2023/08/26 00:15:07;;;;;;;8.32;3.78;;;24.10;99.90;;;;;;6220718;23;20020;-81
2023/08/26 00:17:35;;;;;;;11.65;4.30;;;24.10;99.90;;;;;;6220152;23;20466;-81
2023/08/26 00:20:09;;;;;;;9.45;4.03;;;24.10;99.90;;;;;;6245966;23;20423;-81
2023/08/26 00:22:38;;;;;;;6.70;3.75;;;24.10;99.90;;;;;;6221993;23;20020;-81
2023/08/26 00:25:06;;;;;;;7.25;3.90;;;24.00;99.90;;;;;;6223262;23;20020;-81
2023/08/26 00:27:33;;;;;;;8.60;4.63;;;24.00;99.90;;;;;;6223785;23;20056;-81
2023/08/26 00:30:00;;;;;;;5.43;3.42;;;24.00;99.90;;;;;;6223166;23;20082;-82
2023/08/26 00:32:29;;;;;;;5.78;3.38;;;24.00;99.90;;;;;;6221865;23;20082;-82
2023/08/26 00:34:56;;;;;;;6.47;3.75;;;23.90;99.90;;;;;;6221787;23;20024;-82
2023/08/26 00:37:24;;;;;;;7.10;3.72;;;23.90;99.90;;;;;;6246694;23;20027;-81
2023/08/26 00:39:51;;;;;;;6.65;3.70;;;23.90;99.90;;;;;;6220993;23;20093;-82
2023/08/26 00:42:19;;;;;;;7.53;3.38;;;23.90;99.90;;;;;;6222056;23;20043;-80
2023/08/26 00:44:47;;;;;;;6.78;3.60;;;23.90;99.90;;;;;;6209702;23;20040;-81
2023/08/26 00:47:15;;;;;;;7.90;3.50;;;23.90;99.90;;;;;;6220892;23;20016;-81
2023/08/26 00:49:42;;;;;;;6.03;3.40;;;23.90;99.90;;;;;;6221326;23;20043;-81
2023/08/26 00:52:10;;;;;;;6.68;3.72;;;23.80;99.90;;;;;;6220682;23;20091;-81
2023/08/26 00:54:37;;;;;;;7.43;3.40;;;23.80;99.90;;;;;;6221686;23;20030;-82
2023/08/26 00:57:06;;;;;;;8.10;3.35;;;23.80;99.90;;;;;;6220966;23;20593;-81
2023/08/26 00:59:35;;;;;;;7.50;3.17;;;23.80;99.90;;;;;;6221503;23;20030;-82
2023/08/26 01:02:02;;;;;;;6.10;3.30;;;23.80;99.90;;;;;;6246560;23;20026;-82
2023/08/26 01:04:30;;;;;;;6.55;4.00;;;23.80;99.90;;;;;;6245522;23;20016;-81
2023/08/26 01:06:57;;;;;;;5.80;3.05;;;23.80;99.90;;;;;;6221664;23;20028;-82
2023/08/26 01:09:25;;;;;;;6.47;3.38;;;23.80;99.90;;;;;;6219946;23;20027;-82
2023/08/26 01:12:15;;;;;;;7.85;3.60;;;23.80;99.90;;;;;;6220438;23;20074;-82
2023/08/26 01:15:00;;;;;;;5.25;3.63;;;23.80;99.90;;;;;;6219000;23;20436;-82
2023/08/26 01:17:29;;;;;;;7.03;3.60;;;23.80;99.90;;;;;;6248091;23;20024;-82
2023/08/26 01:19:59;;;;;;;6.45;3.15;;;23.80;99.90;;;;;;6222158;23;20017;-82
2023/08/26 01:22:28;;;;;;;8.32;3.92;;;23.70;99.90;;;;;;6221634;23;20471;-83
2023/08/26 01:24:56;;;;;;;8.65;3.78;;;23.60;99.90;;;;;;6244894;23;20028;-82
2023/08/26 01:27:23;;;;;;;7.43;3.80;;;23.60;99.90;;;;;;6221344;23;20012;-82
2023/08/26 01:29:50;;;;;;;4.88;3.22;;;23.60;99.90;;;;;;6221749;23;20016;-82
2023/08/26 01:32:37;;;;;;;5.65;2.65;;;23.60;99.90;;;;;;6220303;23;20024;-82
2023/08/26 01:35:08;;;;;;;7.50;3.10;;;23.70;99.90;;;;;;6220135;23;20044;-82
2023/08/26 01:37:39;;;;;;;5.90;3.55;;;23.60;99.90;;;;;;6246537;23;20016;-83
2023/08/26 01:40:09;;;;;;;5.53;3.03;;;23.60;99.90;;;;;;6222345;23;20034;-84
2023/08/26 01:42:39;;;;;;;14.32;4.40;;;23.60;99.90;;;;;;6222201;23;20016;-84
2023/08/26 01:45:06;;;;;;;6.22;3.72;;;23.60;99.90;;;;;;6222060;23;20104;-82
2023/08/26 01:47:34;;;;;;;5.78;3.38;;;23.60;99.90;;;;;;6223827;23;20016;-82
2023/08/26 01:50:01;;;;;;;8.55;4.07;;;23.60;99.90;;;;;;6223766;23;20024;-82
2023/08/26 01:52:28;;;;;;;10.10;3.85;;;23.60;99.90;;;;;;6221760;23;20020;-82
2023/08/26 01:54:55;;;;;;;5.38;3.65;;;23.50;99.90;;;;;;6222264;23;20024;-83
2023/08/26 01:57:23;;;;;;;9.75;4.20;;;23.50;99.90;;;;;;6222947;23;20086;-82
2023/08/26 01:59:50;;;;;;;6.05;3.47;;;23.50;99.90;;;;;;6222374;23;20027;-82
2023/08/26 02:02:17;;;;;;;5.45;2.53;;;23.50;99.90;;;;;;6222313;23;20024;-82
2023/08/26 02:04:45;;;;;;;7.20;3.35;;;23.50;99.90;;;;;;6246772;23;20028;-82
2023/08/26 02:07:12;;;;;;;6.75;4.00;;;23.50;99.90;;;;;;6248902;23;20020;-82
2023/08/26 02:09:39;;;;;;;6.20;3.35;;;23.50;99.90;;;;;;6223796;23;20067;-82
2023/08/26 02:12:08;;;;;;;8.40;3.40;;;23.50;99.90;;;;;;6222521;23;20020;-81
2023/08/26 02:14:35;;;;;;;9.73;3.17;;;23.50;99.90;;;;;;6247755;23;20023;-82
2023/08/26 02:17:02;;;;;;;5.80;3.60;;;23.50;99.90;;;;;;6223105;23;20028;-82
2023/08/26 02:19:29;;;;;;;6.30;3.78;;;23.40;99.90;;;;;;6248551;23;20091;-81
2023/08/26 02:21:57;;;;;;;10.73;3.15;;;23.40;99.90;;;;;;6245662;23;20043;-82
2023/08/26 02:24:25;;;;;;;7.22;3.47;;;23.40;99.90;;;;;;6221152;23;20091;-81
2023/08/26 02:26:52;;;;;;;7.50;3.72;;;23.40;99.90;;;;;;6247383;23;20444;-82
2023/08/26 02:29:22;;;;;;;7.05;3.03;;;23.40;99.90;;;;;;6247186;23;20039;-82
2023/08/26 02:31:49;;;;;;;8.25;4.00;;;23.40;99.90;;;;;;6247314;23;20080;-82
2023/08/26 02:34:16;;;;;;;5.40;3.45;;;23.40;99.90;;;;;;6222020;23;20024;-82
2023/08/26 02:36:43;;;;;;;5.35;3.40;;;23.40;99.90;;;;;;6247399;23;20436;-82
2023/08/26 02:39:10;;;;;;;5.95;3.50;;;23.30;99.90;;;;;;6221230;23;20020;-82
2023/08/26 02:41:38;;;;;;;7.03;3.08;;;23.30;99.90;;;;;;6246711;23;20028;-82
2023/08/26 02:44:05;;;;;;;6.00;2.92;;;23.30;99.90;;;;;;6222281;23;20024;-82
2023/08/26 02:46:32;;;;;;;6.47;3.15;;;23.30;99.90;;;;;;6220472;23;20024;-83
2023/08/26 02:49:01;;;;;;;5.32;3.15;;;23.30;99.90;;;;;;6221982;23;20085;-82
2023/08/26 02:51:28;;;;;;;6.50;3.35;;;23.30;99.90;;;;;;6221180;23;20058;-82
2023/08/26 02:53:55;;;;;;;6.53;3.30;;;23.30;99.90;;;;;;6222042;23;20034;-82
2023/08/26 02:56:22;;;;;;;6.32;3.25;;;23.30;99.90;;;;;;6221505;23;20024;-82
2023/08/26 02:58:49;;;;;;;5.90;2.53;;;23.20;99.90;;;;;;6247342;23;20027;-82
2023/08/26 03:01:17;;;;;;;7.03;3.05;;;23.20;99.90;;;;;;6220920;23;20024;-83
2023/08/26 03:03:45;;;;;;;7.28;3.58;;;23.30;99.90;;;;;;6221817;23;20395;-82
2023/08/26 03:06:12;;;;;;;7.70;3.47;;;23.20;99.90;;;;;;6221733;23;20024;-82
2023/08/26 03:08:40;;;;;;;8.20;3.70;;;23.20;99.90;;;;;;6221245;23;20051;-83
2023/08/26 03:11:07;;;;;;;5.95;3.55;;;23.20;99.90;;;;;;6220449;23;20043;-82
2023/08/26 03:13:35;;;;;;;5.90;2.97;;;23.10;99.90;;;;;;6219716;23;20382;-82
2023/08/26 03:16:08;;;;;;;5.95;3.05;;;23.20;99.90;;;;;;6248509;23;20023;-82
2023/08/26 03:18:36;;;;;;;6.55;4.22;;;23.10;99.90;;;;;;6221843;23;20030;-81
2023/08/26 03:21:07;;;;;;;6.93;4.10;;;23.10;99.90;;;;;;6243873;23;20028;-82
2023/08/26 03:23:35;;;;;;;6.10;3.42;;;23.10;99.90;;;;;;6243821;23;20452;-81
2023/08/26 03:26:03;;;;;;;6.65;3.70;;;23.10;99.90;;;;;;6219173;23;20693;-82
2023/08/26 03:28:33;;;;;;;7.35;3.50;;;23.10;99.90;;;;;;6220261;23;20024;-82
2023/08/26 03:31:05;;;;;;;6.40;3.75;;;23.10;99.90;;;;;;6244787;23;20031;-82
2023/08/26 03:33:34;;;;;;;6.10;3.72;;;23.70;99.90;;;;;;6219307;23;20050;-82
2023/08/26 03:36:06;;;;;;;6.78;3.97;;;23.00;99.90;;;;;;6218934;23;20450;-82
2023/08/26 03:38:34;;;;;;;6.60;3.75;;;22.90;99.90;;;;;;6219092;23;20028;-82
2023/08/26 03:41:05;;;;;;;6.07;3.42;;;23.00;99.90;;;;;;6219992;23;20024;-82
2023/08/26 03:43:34;;;;;;;6.10;4.05;;;23.00;99.90;;;;;;6243361;23;20027;-82
2023/08/26 03:46:03;;;;;;;7.88;4.00;;;23.00;99.90;;;;;;6218893;23;20074;-82
2023/08/26 03:48:31;;;;;;;7.43;4.18;;;23.00;99.90;;;;;;6218479;23;20024;-82
2023/08/26 03:50:58;;;;;;;6.20;3.63;;;22.90;99.90;;;;;;6219515;23;20827;-82
2023/08/26 03:53:27;;;;;;;7.80;3.70;;;23.00;99.90;;;;;;6218083;23;20106;-82
2023/08/26 03:55:54;;;;;;;7.47;4.22;;;23.00;99.90;;;;;;6218848;23;20024;-82
2023/08/26 03:58:21;;;;;;;8.40;3.55;;;22.90;99.90;;;;;;6244337;23;20111;-82
2023/08/26 04:00:50;;;;;;;4.85;2.88;;;22.90;99.90;;;;;;6241542;23;20026;-82
2023/08/26 04:03:20;;;;;;;9.60;3.97;;;22.90;99.90;;;;;;6244302;23;20038;-82
2023/08/26 04:05:48;;;;;;;7.55;4.68;;;22.90;99.90;;;;;;6244711;23;20043;-82
2023/08/26 04:08:16;;;;;;;7.20;4.03;;;22.90;99.90;;;;;;6219158;23;20491;-81
2023/08/26 04:10:43;;;;;;;6.00;3.47;;;22.90;99.90;;;;;;6219035;23;20020;-80
2023/08/26 04:13:21;;;;;;;8.35;4.20;;;22.90;99.90;;;;;;6218784;23;20016;-82
2023/08/26 04:15:49;;;;;;;7.03;3.95;;;22.90;99.90;;;;;;6219234;23;20020;-82
2023/08/26 04:18:16;;;;;;;6.07;3.85;;;22.90;99.90;;;;;;6243517;23;20103;-82
2023/08/26 04:20:43;;;;;;;6.28;3.60;;;22.90;99.90;;;;;;6218000;23;20028;-82
2023/08/26 04:23:11;;;;;;;7.97;4.30;;;22.90;99.90;;;;;;6244802;23;20070;-81
2023/08/26 04:25:39;;;;;;;8.73;3.60;;;22.90;99.90;;;;;;6243437;23;20016;-81
2023/08/26 04:28:06;;;;;;;5.38;3.50;;;22.90;99.90;;;;;;6218973;23;20020;-82
2023/08/26 04:30:34;;;;;;;6.40;4.10;;;22.90;99.90;;;;;;6217023;23;20012;-82
2023/08/26 04:33:03;;;;;;;5.57;3.58;;;22.90;99.90;;;;;;6242504;23;20028;-82
2023/08/26 04:35:32;;;;;;;8.55;4.32;;;22.90;99.90;;;;;;6217633;23;20024;-82
2023/08/26 04:38:02;;;;;;;7.90;3.63;;;22.90;99.90;;;;;;6216834;23;20024;-82
2023/08/26 04:40:29;;;;;;;9.82;4.53;;;22.90;99.90;;;;;;6218547;23;20103;-82
2023/08/26 04:42:57;;;;;;;6.15;4.40;;;22.90;99.90;;;;;;6217611;23;20020;-82
2023/08/26 04:45:24;;;;;;;6.80;4.55;;;23.00;99.90;;;;;;6217695;23;20026;-82
2023/08/26 04:47:51;;;;;;;7.03;4.28;;;22.90;99.90;;;;;;6216572;23;20769;-82
2023/08/26 04:50:19;;;;;;;7.20;4.43;;;23.00;99.90;;;;;;6218423;23;20399;-82
2023/08/26 04:52:46;;;;;;;7.60;3.83;;;23.00;99.90;;;;;;6230858;23;20020;-82
2023/08/26 04:55:13;;;;;;;7.82;4.03;;;23.00;99.90;;;;;;6218253;23;20032;-82
2023/08/26 04:57:40;;;;;;;7.70;4.25;;;23.00;99.90;;;;;;6219010;23;20032;-82
2023/08/26 05:00:10;;;;;;;7.47;3.92;;;23.00;99.90;;;;;;6219118;23;20474;-81
2023/08/26 05:02:40;;;;;;;9.32;4.40;;;23.00;99.90;;;;;;6219375;23;20047;-82
2023/08/26 05:05:09;;;;;;;7.27;4.00;;;23.00;99.90;;;;;;6218793;23;20738;-82
2023/08/26 05:07:36;;;;;;;6.20;4.13;;;23.00;99.90;;;;;;6219520;23;20253;-82
2023/08/26 05:10:03;;;;;;;8.18;4.38;;;23.10;99.90;;;;;;6243440;23;20027;-81
2023/08/26 05:12:31;;;;;;;7.72;4.07;;;23.00;99.90;;;;;;6244191;23;20051;-82
2023/08/26 05:14:59;;;;;;;6.03;4.15;;;23.10;99.90;;;;;;6221670;23;20332;-83
2023/08/26 05:17:27;;;;;;;8.38;4.25;;;23.20;99.90;;;;;;6247899;23;20046;-82
2023/08/26 05:19:54;;;;;;;9.23;4.70;;;23.20;99.90;;;;;;6220738;23;20024;-82
2023/08/26 05:22:22;;;;;;;6.72;4.03;;;23.30;99.90;;;;;;6221865;23;20027;-81
2023/08/26 05:24:49;;;;;;;7.28;4.22;;;23.30;99.90;;;;;;6223654;23;20034;-82
2023/08/26 05:27:19;;;;;;;9.48;4.72;;;23.40;99.90;;;;;;6223932;23;20027;-82
2023/08/26 05:29:47;;;;;;;6.60;4.22;;;23.40;99.90;;;;;;6236024;23;20027;-82
2023/08/26 05:32:15;;;;;;;7.57;4.75;;;23.40;99.90;;;;;;6222260;23;20024;-82
2023/08/26 05:34:43;;;;;;;11.90;5.10;;;23.50;99.90;;;;;;6221184;23;20364;-82
2023/08/26 05:37:10;;;;;;;7.45;4.45;;;23.50;99.90;;;;;;6222644;23;20793;-82
2023/08/26 05:39:38;;;;;;;6.28;4.20;;;23.50;99.90;;;;;;6223570;23;20107;-82
2023/08/26 05:42:06;;;;;;;8.85;4.43;;;23.60;99.90;;;;;;6248382;23;20058;-82
2023/08/26 05:44:33;;;;;;;10.80;5.15;;;23.60;99.90;;;;;;6248574;23;20111;-82
2023/08/26 05:47:01;;;;;;;6.05;4.18;;;23.70;99.90;;;;;;6222779;23;20083;-82
2023/08/26 05:49:30;;;;;;;7.35;4.43;;;23.70;99.90;;;;;;6222533;23;20456;-82
2023/08/26 05:51:57;;;;;;;6.70;3.83;;;23.80;99.90;;;;;;6223174;23;20432;-82
2023/08/26 05:54:25;;;;;;;9.52;5.55;;;23.80;99.90;;;;;;6222628;23;20024;-82
2023/08/26 05:56:53;;;;;;;8.05;4.28;;;23.90;99.90;;;;;;6223875;23;20031;-81
2023/08/26 05:59:20;;;;;;;7.35;4.72;;;24.00;99.90;;;;;;6223008;23;20028;-82
2023/08/26 06:01:48;;;;;;;8.48;5.07;;;24.00;99.90;;;;;;6222011;23;20028;-80
2023/08/26 06:04:15;;;;;;;7.47;5.05;;;24.10;99.90;;;;;;6248530;23;20020;-81
2023/08/26 06:06:42;;;;;;;7.78;4.97;;;24.20;99.90;;;;;;6246964;23;20020;-80
2023/08/26 06:09:13;;;;;;;8.70;4.72;;;24.30;99.90;;;;;;6219327;23;20107;-79
2023/08/26 06:11:41;;;;;;;11.13;4.97;;;24.40;99.90;;;;;;6218786;23;20016;-80
2023/08/26 06:14:09;;;;;;;7.38;4.80;;;24.50;99.90;;;;;;6219634;23;20077;-80
2023/08/26 06:16:36;;;;;;;8.70;5.05;;;24.70;99.90;;;;;;6219433;23;20104;-80
2023/08/26 06:19:04;;;;;;;13.32;5.55;;;24.80;99.90;;;;;;6244867;23;20107;-81
2023/08/26 06:21:31;;;;;;;10.27;5.53;;;24.90;99.90;;;;;;6243569;23;20020;-80
2023/08/26 06:23:58;;;;;;;8.48;4.95;;;25.00;99.90;;;;;;6243408;23;20023;-80
2023/08/26 06:26:26;;;;;;;10.38;5.13;;;25.20;99.90;;;;;;6219849;23;20024;-80
2023/08/26 06:28:53;;;;;;;6.28;5.05;;;25.30;99.90;;;;;;6220247;23;20024;-80
2023/08/26 06:31:20;;;;;;;7.70;5.30;;;25.40;99.90;;;;;;6218687;23;20451;-80
2023/08/26 06:33:49;;;;;;;10.45;5.32;;;25.50;99.90;;;;;;6220027;23;20686;-80
2023/08/26 06:36:17;;;;;;;9.57;5.65;;;25.60;99.90;;;;;;6214081;23;20035;-79
2023/08/26 06:38:44;;;;;;;8.63;6.05;;;25.70;99.90;;;;;;6218453;23;20406;-79
2023/08/26 06:41:11;;;;;;;10.75;5.63;;;25.90;99.90;;;;;;6215014;23;20035;-80
2023/08/26 06:43:38;;;;;;;7.93;5.68;;;26.00;99.90;;;;;;6216229;23;20012;-79
2023/08/26 06:46:06;;;;;;;8.25;5.35;;;26.00;99.90;;;;;;6216409;23;20080;-80
2023/08/26 06:48:33;;;;;;;10.52;6.25;;;26.10;99.90;;;;;;6217002;23;20020;-82
2023/08/26 06:51:00;;;;;;;8.38;5.80;;;26.20;99.90;;;;;;6240951;23;20082;-81
2023/08/26 06:53:27;;;;;;;7.28;5.65;;;26.30;99.90;;;;;;6241366;23;20036;-82
2023/08/26 06:55:55;;;;;;;7.35;6.00;;;26.40;99.90;;;;;;6215031;23;20027;-82
2023/08/26 06:58:23;;;;;;;7.95;5.63;;;26.50;99.90;;;;;;6242999;23;20074;-79
2023/08/26 07:00:52;;;;;;;11.13;7.05;;;26.60;99.90;;;;;;6215193;23;20104;-82
2023/08/26 07:03:20;;;;;;;10.65;6.30;;;26.70;99.90;;;;;;6242370;23;20030;-82
2023/08/26 07:05:47;;;;;;;9.48;6.25;;;26.80;99.90;;;;;;6215343;23;20016;-82
2023/08/26 07:08:15;;;;;;;7.82;5.95;;;26.90;99.90;;;;;;6217730;23;20023;-82
2023/08/26 07:10:46;;;;;;;11.95;7.05;;;27.00;99.90;;;;;;6239384;23;20123;-81
2023/08/26 07:13:13;;;;;;;7.00;5.70;;;27.10;99.90;;;;;;6242753;23;20027;-81
2023/08/26 07:15:41;;;;;;;8.32;6.20;;;27.10;99.90;;;;;;6242248;23;20086;-81
2023/08/26 07:18:08;;;;;;;8.15;6.40;;;27.20;99.80;;;;;;6216517;23;20024;-81
2023/08/26 07:20:35;;;;;;;9.40;6.05;;;27.30;99.50;;;;;;6216970;23;20523;-81
2023/08/26 07:23:02;;;;;;;8.75;6.18;;;27.50;99.90;;;;;;6215519;23;20384;-81
2023/08/26 07:25:29;;;;;;;9.25;6.75;;;27.60;99.00;;;;;;6216513;23;20020;-81
2023/08/26 07:27:57;;;;;;;8.35;5.43;;;27.60;97.90;;;;;;6241398;23;20040;-81
2023/08/26 07:30:26;;;;;;;9.25;6.22;;;27.80;96.70;;;;;;6242070;23;20020;-81
2023/08/26 07:32:54;;;;;;;10.38;7.40;;;27.90;96.30;;;;;;6212485;23;20030;-81
2023/08/26 07:35:21;;;;;;;10.70;7.13;;;27.90;95.10;;;;;;6240800;23;20043;-81
2023/08/26 07:37:48;;;;;;;10.57;6.50;;;28.00;95.50;;;;;;6217055;23;20032;-81
2023/08/26 07:40:16;;;;;;;8.18;6.57;;;28.10;95.30;;;;;;6244364;23;20028;-81
2023/08/26 07:42:44;;;;;;;9.02;6.47;;;28.30;94.20;;;;;;6244137;23;20028;-81
2023/08/26 07:45:12;;;;;;;8.73;6.57;;;28.30;93.80;;;;;;6239957;23;20016;-81
2023/08/26 07:47:41;;;;;;;8.88;6.00;;;28.50;93.80;;;;;;6244070;23;20012;-80
2023/08/26 07:50:11;;;;;;;7.90;6.47;;;28.60;94.60;;;;;;6241677;23;20436;-81
2023/08/26 07:52:38;;;;;;;12.02;7.38;;;28.70;94.20;;;;;;6217822;23;20016;-80
2023/08/26 07:55:06;;;;;;;8.23;6.70;;;28.80;93.50;;;;;;6244203;23;20055;-81
2023/08/26 07:57:33;;;;;;;8.95;7.00;;;28.80;93.60;;;;;;6243719;23;20036;-80
2023/08/26 08:00:02;;;;;;;9.02;6.60;;;28.80;93.60;;;;;;6217299;23;20051;-81
2023/08/26 08:02:38;;;;;;;8.85;6.53;;;28.90;92.70;;;;;;6238973;23;20024;-80
2023/08/26 08:05:06;;;;;;;9.48;7.53;;;29.00;94.00;;;;;;6241303;23;20016;-80
2023/08/26 08:07:33;;;;;;;9.43;6.50;;;29.10;93.50;;;;;;6246551;23;20016;-81
2023/08/26 08:10:00;;;;;;;8.15;6.95;;;29.20;93.80;;;;;;6242809;23;20074;-82
2023/08/26 08:12:27;;;;;;;9.40;6.55;;;29.20;93.10;;;;;;6218102;23;20019;-82
2023/08/26 08:14:54;;;;;;;8.98;6.57;;;29.20;92.50;;;;;;6243232;23;20070;-80
2023/08/26 08:17:21;;;;;;;11.43;7.03;;;29.30;91.90;;;;;;6243364;23;20108;-82
2023/08/26 08:19:48;;;;;;;8.63;6.68;;;29.30;91.00;;;;;;6217554;23;20078;-81
2023/08/26 08:22:16;;;;;;;10.43;6.55;;;29.40;92.10;;;;;;6241213;23;20016;-81
2023/08/26 08:24:46;;;;;;;10.00;6.75;;;29.50;92.60;;;;;;6240801;23;20450;-82
2023/08/26 09:07:48;;;;;;;8.98;7.78;;;30.10;90.80;;;;;;6196449;22;1305432;-80
2023/08/26 09:10:16;;;;;;;10.88;7.28;;;30.40;88.80;;;;;;6198041;23;20016;-79
2023/08/26 09:12:43;;;;;;;9.10;7.75;;;30.40;90.50;;;;;;6197526;23;20051;-80
2023/08/26 09:15:10;;;;;;;9.48;7.93;;;30.50;89.60;;;;;;6223439;23;20036;-80
2023/08/26 09:17:43;;;;;;;11.25;8.20;;;30.50;90.00;;;;;;6200610;23;20142;-81
2023/08/26 09:20:11;;;;;;;10.98;7.35;;;30.50;90.10;;;;;;6224086;23;20031;-80
2023/08/26 09:22:38;;;;;;;10.13;7.72;;;30.50;90.10;;;;;;6199547;23;20027;-80
2023/08/26 09:25:05;;;;;;;12.27;8.10;;;30.60;89.20;;;;;;6224168;23;20049;-81
2023/08/26 09:27:34;;;;;;;9.77;8.18;;;30.60;87.50;;;;;;6199008;23;20707;-80
2023/08/26 09:30:03;;;;;;;9.07;7.82;;;30.70;87.40;;;;;;6223748;23;20054;-80
2023/08/26 09:32:32;;;;;;;10.50;8.00;;;30.70;86.20;;;;;;6222488;23;20020;-79
2023/08/26 09:35:19;;;;;;;12.75;8.05;;;30.80;86.70;;;;;;6198968;23;20027;-81
2023/08/26 09:38:08;;;;;;;9.02;7.32;;;30.80;87.40;;;;;;6251047;23;20726;-80
2023/08/26 09:40:38;;;;;;;8.55;6.88;;;30.90;85.30;;;;;;6200164;23;20026;-81
2023/08/26 09:43:06;;;;;;;10.32;6.40;;;31.00;84.80;;;;;;6224813;23;20016;-81
2023/08/26 09:45:38;;;;;;;9.38;6.28;;;31.20;80.50;;;;;;6199289;23;20028;-82
2023/08/26 09:48:05;;;;;;;9.82;6.35;;;31.10;77.70;;;;;;6199178;23;20701;-80
2023/08/26 09:52:49;;;;;;;6.53;5.75;;;31.10;75.80;;;;;;5031277;28;20409;-78
2023/08/26 09:55:16;;;;;;;9.32;6.07;;;31.20;77.20;;;;;;5022482;28;20389;-82
2023/08/26 09:57:45;;;;;;;8.23;5.82;;;31.30;78.00;;;;;;5030695;28;20124;-83
2023/08/26 10:00:15;;;;;;;10.73;6.10;;;31.40;77.10;;;;;;5004297;28;20046;-80
2023/08/26 10:02:50;;;;;;;7.70;5.78;;;31.40;76.60;;;;;;5028978;28;20049;-80
2023/08/26 10:05:22;;;;;;;10.05;5.78;;;31.50;76.40;;;;;;5013679;28;20061;-80
2023/08/26 10:07:50;;;;;;;;;;;31.60;76.00;;;;;;5015932;28;20065;-80
2023/08/26 10:10:34;;;;;;;10.35;5.82;;;31.50;75.90;;;;;;5008960;28;20208;-82
2023/08/26 10:13:06;;;;;;;11.85;5.47;;;31.50;74.70;;;;;;5026018;28;20141;-79
2023/08/26 10:15:34;;;;;;;11.82;5.00;;;31.60;74.90;;;;;;5010555;28;20044;-80
2023/08/26 10:18:13;;;;;;;7.97;4.63;;;31.60;75.10;;;;;;5015276;28;20423;-81
2023/08/26 10:20:41;;;;;;;7.95;5.40;;;31.60;74.90;;;;;;5017213;28;20054;-80
2023/08/26 10:23:10;;;;;;;5.90;4.00;;;31.70;74.70;;;;;;5011594;28;20038;-80
2023/08/26 10:25:37;;;;;;;8.45;4.78;;;31.80;74.90;;;;;;5011610;28;20320;-79
2023/08/26 10:28:05;;;;;;;7.90;4.97;;;31.80;73.30;;;;;;5013596;28;20065;-79
2023/08/26 10:30:32;;;;;;;11.38;5.72;;;31.70;73.60;;;;;;5032112;28;20392;-79
2023/08/26 10:33:01;;;;;;;6.75;4.60;;;31.80;73.60;;;;;;5015642;28;20128;-79
2023/08/26 10:35:28;;;;;;;8.07;4.72;;;31.80;72.50;;;;;;5030839;28;20519;-80
2023/08/26 10:38:16;;;;;;;6.10;4.28;;;31.90;72.90;;;;;;5014829;28;20056;-80
2023/08/26 10:40:43;;;;;;;8.52;4.65;;;31.80;71.70;;;;;;5000272;28;20053;-79
2023/08/26 10:43:12;;;;;;;6.32;4.28;;;31.90;72.20;;;;;;5009252;28;20069;-79
2023/08/26 10:45:50;;;;;;;7.45;4.63;;;32.00;71.80;;;;;;4996544;28;20598;-80
2023/08/26 10:48:18;;;;;;;5.63;4.43;;;31.90;72.10;;;;;;4983298;28;20136;-81
2023/08/26 10:50:58;;;;;;;7.43;4.55;;;31.90;71.70;;;;;;4997351;28;20057;-80
2023/08/26 10:53:26;;;;;;;8.60;4.53;;;32.00;71.70;;;;;;5018242;28;20161;-80
2023/08/26 10:56:10;;;;;;;8.20;4.28;;;32.00;72.10;;;;;;4986239;28;20490;-80
2023/08/26 10:58:48;;;;;;;9.55;4.63;;;32.00;71.30;;;;;;4979655;28;20050;-81
2023/08/26 11:01:16;;;;;;;12.68;5.03;;;32.10;72.00;;;;;;4986701;28;20120;-81
2023/08/26 11:03:47;;;;;;;9.45;4.53;;;32.10;72.50;;;;;;4988446;28;20188;-86
2023/08/26 11:06:21;;;;;;;8.40;5.20;;;32.20;71.70;;;;;;4969523;28;20053;-81
2023/08/26 11:08:56;;;;;;;7.45;4.50;;;32.20;71.40;;;;;;4985587;28;20463;-80
2023/08/26 11:11:24;;;;;;;6.50;4.72;;;32.30;72.10;;;;;;4966078;28;20042;-81
2023/08/26 11:13:51;;;;;;;7.13;4.57;;;32.30;71.90;;;;;;4967817;28;20070;-81
2023/08/26 11:16:20;;;;;;;6.75;5.00;;;32.30;72.30;;;;;;4973149;28;20129;-79
2023/08/26 11:18:52;;;;;;;8.82;4.13;;;32.30;72.30;;;;;;4989980;28;20046;-79
2023/08/26 11:21:20;;;;;;;7.57;5.00;;;32.20;70.90;;;;;;4998075;28;20112;-82
2023/08/26 11:23:48;;;;;;;8.48;5.03;;;32.20;71.20;;;;;;4997223;28;20054;-83
2023/08/26 11:26:20;;;;;;;6.28;4.82;;;32.40;71.40;;;;;;5005651;28;20128;-81
2023/08/26 11:28:48;;;;;;;8.85;4.53;;;32.40;71.10;;;;;;4997705;28;20105;-82
2023/08/26 11:31:16;;;;;;;8.77;4.53;;;32.30;70.50;;;;;;4982350;28;20133;-80
2023/08/26 11:33:43;;;;;;;9.93;4.32;;;32.30;71.80;;;;;;5005680;28;20119;-82
2023/08/26 11:36:11;;;;;;;8.93;4.57;;;32.40;70.50;;;;;;5016631;28;20065;-83
2023/08/26 11:38:38;;;;;;;7.68;4.38;;;32.50;70.40;;;;;;4997708;28;20143;-81
2023/08/26 11:41:06;;;;;;;7.25;4.80;;;32.40;70.80;;;;;;5013156;28;20053;-82
2023/08/26 11:43:36;;;;;;;6.85;4.35;;;32.50;71.60;;;;;;5005232;28;20038;-82
2023/08/26 11:46:05;;;;;;;7.45;4.60;;;32.60;70.60;;;;;;5004650;28;20101;-81
2023/08/26 11:48:36;;;;;;;9.18;4.85;;;32.50;70.10;;;;;;5002017;28;20074;-82
2023/08/26 11:51:05;;;;;;;6.28;4.70;;;32.50;70.90;;;;;;5000026;28;20057;-81
2023/08/26 11:53:35;;;;;;;9.50;5.40;;;32.60;72.40;;;;;;4988139;28;20070;-82
2023/08/26 11:56:02;;;;;;;7.38;5.32;;;32.60;70.90;;;;;;5005687;28;20141;-83
2023/08/26 11:58:29;;;;;;;6.85;5.13;;;32.60;70.40;;;;;;5000257;28;20100;-83
2023/08/26 12:00:58;;;;;;;7.00;5.13;;;32.60;71.60;;;;;;5002781;28;20053;-83
2023/08/26 12:03:30;;;;;;;6.82;4.40;;;32.70;71.00;;;;;;4990099;28;20064;-81
2023/08/26 12:05:57;;;;;;;8.88;5.13;;;32.60;70.20;;;;;;4999684;28;20047;-84
2023/08/26 12:08:24;;;;;;;8.95;4.70;;;32.70;70.10;;;;;;4995847;28;20104;-82
2023/08/26 12:10:53;;;;;;;8.18;4.50;;;32.70;69.50;;;;;;4987222;28;20077;-84
2023/08/26 12:13:20;;;;;;;6.97;4.50;;;32.70;69.90;;;;;;5004696;28;20145;-82
2023/08/26 12:15:49;;;;;;;6.97;4.72;;;32.70;69.70;;;;;;4984069;28;20189;-81
2023/08/26 12:18:19;;;;;;;7.45;4.78;;;32.70;69.50;;;;;;5014696;28;20054;-83
2023/08/26 12:20:46;;;;;;;6.60;4.80;;;32.70;70.90;;;;;;4987617;28;20049;-81
2023/08/26 12:23:17;;;;;;;8.48;4.60;;;32.70;70.40;;;;;;4983416;28;20128;-81
2023/08/26 12:25:45;;;;;;;7.40;4.40;;;32.80;70.50;;;;;;4994274;28;20050;-81
2023/08/26 12:28:15;;;;;;;6.90;4.88;;;32.70;69.50;;;;;;5002695;28;20056;-82
2023/08/26 12:30:44;;;;;;;8.32;4.15;;;32.80;70.90;;;;;;5004175;28;20105;-81
2023/08/26 12:33:11;;;;;;;7.47;4.55;;;32.80;69.50;;;;;;5006672;28;20107;-80
2023/08/26 12:35:53;;;;;;;7.82;4.78;;;32.80;69.70;;;;;;5000838;28;20429;-82
2023/08/26 12:38:23;;;;;;;9.65;4.85;;;32.80;70.00;;;;;;5003323;28;20403;-82
2023/08/26 12:40:50;;;;;;;8.00;4.90;;;32.80;69.80;;;;;;4984218;28;20048;-84
2023/08/26 12:43:21;;;;;;;9.35;4.65;;;32.80;70.60;;;;;;5002082;28;20054;-82
2023/08/26 12:45:49;;;;;;;7.70;4.80;;;32.80;71.50;;;;;;4985582;28;20137;-82
2023/08/26 12:48:17;;;;;;;8.00;4.68;;;32.80;70.90;;;;;;4995196;28;20153;-83
2023/08/26 12:51:08;;;;;;;7.55;4.68;;;32.90;70.40;;;;;;5013606;28;20191;-81
2023/08/26 12:53:37;;;;;;;7.90;4.80;;;32.90;69.50;;;;;;4999685;28;20052;-81
2023/08/26 12:56:05;;;;;;;6.82;4.80;;;32.80;69.50;;;;;;4983365;28;20085;-81
2023/08/26 12:58:32;;;;;;;10.93;4.95;;;32.80;69.80;;;;;;5011857;28;20092;-81
2023/08/26 13:01:00;;;;;;;5.25;4.05;;;32.80;69.70;;;;;;4993577;28;20049;-80
2023/08/26 13:03:27;;;;;;;5.97;4.50;;;32.90;71.50;;;;;;4994481;28;20078;-81
2023/08/26 13:05:57;;;;;;;7.85;5.05;;;32.90;70.50;;;;;;5010658;28;20049;-83
2023/08/26 13:08:25;;;;;;;7.45;4.65;;;32.90;69.50;;;;;;5001314;28;20065;-82
2023/08/26 13:10:53;;;;;;;8.23;4.15;;;33.00;69.70;;;;;;4988036;28;20054;-81
2023/08/26 13:13:21;;;;;;;6.53;4.95;;;32.90;69.00;;;;;;5000397;28;20100;-81
2023/08/26 13:15:48;;;;;;;6.18;4.32;;;33.00;70.10;;;;;;4998102;28;20543;-83
2023/08/26 13:18:15;;;;;;;9.55;4.30;;;32.90;69.30;;;;;;4998060;28;20056;-81
2023/08/26 13:20:42;;;;;;;7.47;4.60;;;32.90;69.00;;;;;;4994229;28;20507;-82
2023/08/26 13:23:10;;;;;;;17.23;5.38;;;33.00;68.70;;;;;;4993558;28;20052;-82
2023/08/26 13:25:37;;;;;;;6.68;4.95;;;32.90;70.10;;;;;;4985878;28;20060;-81
2023/08/26 13:28:06;;;;;;;6.95;4.65;;;33.00;69.20;;;;;;5004328;28;20049;-82
2023/08/26 13:30:34;;;;;;;8.73;5.00;;;33.00;69.20;;;;;;4995701;28;20129;-83
2023/08/26 13:33:02;;;;;;;9.15;4.43;;;33.00;70.40;;;;;;5011596;28;20512;-80
2023/08/26 13:35:30;;;;;;;8.82;4.70;;;33.10;68.40;;;;;;5004154;28;20138;-80